Time;durP1;ratioP1;P1;durP2;ratioP2;P2;SDS_P1;SDS_P2;PMS_P1;PMS_P2;Temp;Humidity;BMP_temperature;BMP_pressure;BME280_temperature;BME280_humidity;BME280_pressure;Samples;Min_cycle;Max_cycle;Signal;HPM_P1;HPM_P2
2024/04/21 00:01:19;;;;;;;;;;;9.40;99.90;;;;;;5331898;26;19926;-61
2024/04/21 00:03:46;;;;;;;;;;;9.40;99.90;;;;;;5340360;26;20012;-61
2024/04/21 00:06:13;;;;;;;;;;;9.40;99.90;;;;;;5335191;26;19938;-60
2024/04/21 00:08:40;;;;;;;;;;;9.40;99.90;;;;;;5339985;26;19926;-61
2024/04/21 00:11:07;;;;;;;;;;;9.40;99.90;;;;;;5337315;26;20396;-60
2024/04/21 00:13:34;;;;;;;;;;;9.40;99.90;;;;;;5329620;26;19957;-61
2024/04/21 00:16:00;;;;;;;;;;;9.30;99.90;;;;;;5335520;26;20504;-60
2024/04/21 00:18:28;;;;;;;;;;;9.30;99.90;;;;;;5337368;26;20487;-61
2024/04/21 00:20:54;;;;;;;;;;;9.30;99.90;;;;;;5335423;26;19926;-60
2024/04/21 00:23:21;;;;;;;;;;;9.40;99.90;;;;;;5342483;26;20366;-60
2024/04/21 00:25:57;;;;;;;;;;;9.30;99.90;;;;;;5336156;26;19972;-61
2024/04/21 00:28:24;;;;;;;;;;;9.30;99.90;;;;;;5338839;26;20000;-61
2024/04/21 00:30:51;;;;;;;;;;;9.30;99.90;;;;;;5351368;21;19926;-60
2024/04/21 00:33:18;;;;;;;;;;;9.20;99.90;;;;;;5376355;26;19925;-60
2024/04/21 00:35:45;;;;;;;;;;;9.20;99.90;;;;;;5351249;26;19926;-60
2024/04/21 00:38:12;;;;;;;;;;;9.20;99.90;;;;;;5381462;26;20233;-60
2024/04/21 00:40:38;;;;;;;;;;;9.40;99.90;;;;;;5344696;26;19932;-59
2024/04/21 00:43:07;;;;;;;;;;;9.30;99.90;;;;;;5369239;26;19991;-60
2024/04/21 00:45:40;;;;;;;;;;;9.40;99.90;;;;;;5341955;26;19938;-60
2024/04/21 00:48:07;;;;;;;;;;;9.40;99.90;;;;;;5373472;26;20007;-60
2024/04/21 00:50:35;;;;;;;;;;;9.40;99.90;;;;;;5381552;26;19932;-60
2024/04/21 00:53:01;;;;;;;;;;;9.50;99.90;;;;;;5369135;26;20362;-59
2024/04/21 00:55:28;;;;;;;;;;;9.50;99.90;;;;;;5368641;26;19926;-60
2024/04/21 00:57:55;;;;;;;;;;;10.00;99.90;;;;;;5370523;26;19933;-60
2024/04/21 01:00:23;;;;;;;;;;;10.00;99.90;;;;;;5369591;26;20448;-58
2024/04/21 01:02:50;;;;;;;;;;;10.00;99.90;;;;;;5372868;26;19932;-60
2024/04/21 01:05:17;;;;;;;;;;;10.00;99.90;;;;;;5383876;26;19939;-60
2024/04/21 01:07:43;;;;;;;;;;;10.10;99.90;;;;;;5380756;26;19953;-59
2024/04/21 01:10:10;;;;;;;;;;;10.10;99.90;;;;;;5380578;26;20559;-60
2024/04/21 01:12:39;;;;;;;;;;;10.10;99.90;;;;;;5383470;26;19925;-60
2024/04/21 01:15:06;;;;;;;;;;;10.10;99.90;;;;;;5389483;26;19990;-59
2024/04/21 01:17:33;;;;;;;;;;;10.10;99.90;;;;;;5383073;26;20365;-59
2024/04/21 01:20:00;;;;;;;;;;;10.10;99.90;;;;;;5384092;26;19926;-60
2024/04/21 01:22:27;;;;;;;;;;;10.10;99.90;;;;;;5345464;26;19933;-60
2024/04/21 01:24:54;;;;;;;;;;;10.00;99.90;;;;;;5377384;26;20150;-60
2024/04/21 01:27:21;;;;;;;;;;;9.90;99.90;;;;;;5369289;26;20440;-59
2024/04/21 01:29:47;;;;;;;;;;;9.90;99.90;;;;;;5376028;26;20686;-61
2024/04/21 01:32:21;;;;;;;;;;;9.90;99.90;;;;;;5385005;26;20002;-61
2024/04/21 01:34:48;;;;;;;;;;;9.80;99.90;;;;;;5380665;26;19973;-61
2024/04/21 01:37:15;;;;;;;;;;;9.80;99.90;;;;;;5382970;26;19932;-60
2024/04/21 01:39:42;;;;;;;;;;;9.70;99.90;;;;;;5382501;26;19990;-60
2024/04/21 01:42:09;;;;;;;;;;;9.70;99.90;;;;;;5376446;26;20490;-61
2024/04/21 01:44:36;;;;;;;;;;;9.70;99.90;;;;;;5378204;26;19925;-61
2024/04/21 01:47:03;;;;;;;;;;;9.60;99.90;;;;;;5374539;26;19926;-61
2024/04/21 01:49:30;;;;;;;;;;;9.60;99.90;;;;;;5348890;26;19925;-61
2024/04/21 01:51:56;;;;;;;;;;;9.60;99.90;;;;;;5366897;26;19941;-61
2024/04/21 01:54:23;;;;;;;;;;;9.50;99.90;;;;;;5376532;26;19932;-58
2024/04/21 01:56:50;;;;;;;;;;;9.50;99.90;;;;;;5371689;26;20007;-61
2024/04/21 01:59:17;;;;;;;;;;;9.50;99.90;;;;;;5371610;26;19924;-58
2024/04/21 02:01:44;;;;;;;;;;;9.50;99.90;;;;;;5369221;26;19933;-60
2024/04/21 02:04:11;;;;;;;;;;;9.50;99.90;;;;;;5320127;26;20370;-61
2024/04/21 02:06:39;;;;;;;;;;;9.50;99.90;;;;;;5373820;26;20374;-61
2024/04/21 02:09:05;;;;;;;;;;;9.50;99.90;;;;;;5369439;26;20353;-58
2024/04/21 02:11:32;;;;;;;;;;;9.50;99.90;;;;;;5376110;26;19934;-61
2024/04/21 02:13:59;;;;;;;;;;;9.50;99.90;;;;;;5372995;26;19925;-60
2024/04/21 02:16:26;;;;;;;;;;;9.50;99.90;;;;;;5373290;26;19929;-58
2024/04/21 02:18:52;;;;;;;;;;;9.40;99.90;;;;;;5375602;26;19932;-59
2024/04/21 02:21:19;;;;;;;;;;;9.40;99.90;;;;;;5372245;26;20382;-59
2024/04/21 02:23:47;;;;;;;;;;;9.40;99.90;;;;;;5377222;26;20516;-59
2024/04/21 02:26:14;;;;;;;;;;;9.40;99.90;;;;;;5371253;26;19958;-60
2024/04/21 02:28:41;;;;;;;;;;;9.40;99.90;;;;;;5378489;26;19925;-59
2024/04/21 02:31:08;;;;;;;;;;;9.40;99.90;;;;;;5385955;26;21596;-60
2024/04/21 02:33:35;;;;;;;;;;;9.40;99.90;;;;;;5380892;26;19931;-61
2024/04/21 02:36:02;;;;;;;;;;;9.50;99.90;;;;;;5369496;26;20639;-60
2024/04/21 02:38:30;;;;;;;;;;;9.50;99.90;;;;;;5371946;26;19929;-61
2024/04/21 02:40:57;;;;;;;;;;;9.50;99.90;;;;;;5377981;26;19937;-58
2024/04/21 02:43:24;;;;;;;;;;;9.40;99.90;;;;;;5376237;26;19933;-59
2024/04/21 02:45:51;;;;;;;;;;;9.40;99.90;;;;;;5382517;26;19986;-61
2024/04/21 02:48:18;;;;;;;;;;;9.40;99.90;;;;;;5375404;26;20324;-60
2024/04/21 02:50:45;;;;;;;;;;;9.40;99.90;;;;;;5372423;26;20003;-60
2024/04/21 02:53:12;;;;;;;;;;;9.50;99.90;;;;;;5376376;26;19995;-60
2024/04/21 02:55:44;;;;;;;;;;;9.50;99.90;;;;;;5374748;26;20336;-60
2024/04/21 02:58:11;;;;;;;;;;;9.50;99.90;;;;;;5382307;26;19932;-60
2024/04/21 03:00:38;;;;;;;;;;;9.50;99.90;;;;;;5376679;26;19957;-57
2024/04/21 03:03:06;;;;;;;;;;;9.50;99.90;;;;;;5386975;26;19941;-59
2024/04/21 03:05:32;;;;;;;;;;;9.50;99.90;;;;;;5386430;26;19990;-59
2024/04/21 03:07:59;;;;;;;;;;;9.50;99.90;;;;;;5381506;26;19937;-61
2024/04/21 03:10:27;;;;;;;;;;;9.50;99.90;;;;;;5376255;26;19936;-61
2024/04/21 03:12:54;;;;;;;;;;;9.40;99.90;;;;;;5373393;26;20639;-61
2024/04/21 03:15:21;;;;;;;;;;;9.40;99.90;;;;;;5385837;26;19925;-60
2024/04/21 03:17:49;;;;;;;;;;;9.30;99.90;;;;;;5376293;26;19995;-60
2024/04/21 03:20:16;;;;;;;;;;;9.20;99.90;;;;;;5379437;26;19925;-60
2024/04/21 03:22:42;;;;;;;;;;;9.20;99.90;;;;;;5379298;26;19925;-61
2024/04/21 03:25:09;;;;;;;;;;;9.10;99.90;;;;;;5388247;26;19925;-58
2024/04/21 03:27:36;;;;;;;;;;;9.10;99.90;;;;;;5373569;26;19925;-61
2024/04/21 03:30:03;;;;;;;;;;;9.10;99.90;;;;;;5378944;26;19925;-60
2024/04/21 03:32:29;;;;;;;;;;;9.00;99.90;;;;;;5373723;26;20262;-61
2024/04/21 03:34:56;;;;;;;;;;;9.00;99.90;;;;;;5377320;26;20115;-59
2024/04/21 03:37:23;;;;;;;;;;;8.90;99.90;;;;;;5381422;26;20358;-60
2024/04/21 03:39:50;;;;;;;;;;;8.80;99.90;;;;;;5375134;26;19932;-59
2024/04/21 03:42:17;;;;;;;;;;;8.80;99.90;;;;;;5381327;26;19926;-60
2024/04/21 03:44:44;;;;;;;;;;;8.70;99.90;;;;;;5374918;26;20032;-60
2024/04/21 03:47:11;;;;;;;;;;;8.70;99.90;;;;;;5376622;26;19929;-60
2024/04/21 03:49:39;;;;;;;;;;;8.60;99.90;;;;;;5373431;26;19926;-58
2024/04/21 03:52:05;;;;;;;;;;;8.60;99.90;;;;;;5376428;26;20381;-61
2024/04/21 03:54:32;;;;;;;;;;;8.50;99.90;;;;;;5377199;26;20254;-60
2024/04/21 03:57:05;;;;;;;;;;;8.50;99.90;;;;;;5372101;26;20320;-61
2024/04/21 03:59:32;;;;;;;;;;;8.50;99.90;;;;;;5379481;26;19939;-61
2024/04/21 04:01:59;;;;;;;;;;;8.50;99.90;;;;;;5373397;26;19990;-61
2024/04/21 04:04:26;;;;;;;;;;;8.50;99.90;;;;;;5388625;26;20132;-61
2024/04/21 04:06:52;;;;;;;;;;;8.50;99.90;;;;;;5370605;26;20669;-61
2024/04/21 04:09:19;;;;;;;;;;;8.50;99.90;;;;;;5386287;26;19991;-61
2024/04/21 04:11:46;;;;;;;;;;;8.40;99.90;;;;;;5372265;26;19930;-60
2024/04/21 04:14:14;;;;;;;;;;;8.40;99.90;;;;;;5385031;26;19931;-60
2024/04/21 04:16:41;;;;;;;;;;;8.40;99.90;;;;;;5375394;26;19925;-61
2024/04/21 04:19:08;;;;;;;;;;;8.40;99.90;;;;;;5373224;26;19992;-59
2024/04/21 04:21:34;;;;;;;;;;;8.40;99.90;;;;;;5386138;26;19933;-61
2024/04/21 04:24:01;;;;;;;;;;;8.40;99.90;;;;;;5387142;26;19925;-61
2024/04/21 04:26:28;;;;;;;;;;;8.40;99.90;;;;;;5386444;26;19991;-61
2024/04/21 04:28:55;;;;;;;;;;;8.40;99.90;;;;;;5379966;26;20424;-60
2024/04/21 04:31:21;;;;;;;;;;;8.50;99.90;;;;;;5378133;26;19929;-61
2024/04/21 04:33:48;;;;;;;;;;;8.50;99.90;;;;;;5373632;26;19949;-61
2024/04/21 04:36:15;;;;;;;;;;;8.50;99.90;;;;;;5370503;26;19925;-61
2024/04/21 04:38:42;;;;;;;;;;;8.50;99.90;;;;;;5375499;26;20327;-61
2024/04/21 04:41:09;;;;;;;;;;;8.40;99.90;;;;;;5384791;26;19932;-61
2024/04/21 04:43:36;;;;;;;;;;;8.40;99.90;;;;;;5365016;26;19938;-61
2024/04/21 04:46:02;;;;;;;;;;;8.40;99.90;;;;;;5376929;26;20262;-61
2024/04/21 04:48:29;;;;;;;;;;;8.30;99.90;;;;;;5373250;26;19933;-61
2024/04/21 04:51:00;;;;;;;;;;;8.40;99.90;;;;;;5393150;26;19933;-61
2024/04/21 04:53:27;;;;;;;;;;;8.40;99.90;;;;;;5375971;26;19925;-61
2024/04/21 04:55:53;;;;;;;;;;;8.40;99.90;;;;;;5379365;26;19933;-61
2024/04/21 04:58:20;;;;;;;;;;;8.40;99.90;;;;;;5387686;26;19925;-61
2024/04/21 05:00:47;;;;;;;;;;;8.40;99.90;;;;;;5378232;26;19941;-61
2024/04/21 05:03:14;;;;;;;;;;;8.40;99.90;;;;;;5385317;26;20004;-61
2024/04/21 05:05:40;;;;;;;;;;;8.40;99.90;;;;;;5378485;26;19933;-61
2024/04/21 05:08:07;;;;;;;;;;;8.40;99.90;;;;;;5388517;26;19933;-60
2024/04/21 05:10:34;;;;;;;;;;;8.40;99.90;;;;;;5382001;26;19925;-60
2024/04/21 05:13:01;;;;;;;;;;;8.40;99.90;;;;;;5379268;26;19925;-61
2024/04/21 05:15:28;;;;;;;;;;;8.50;99.90;;;;;;5390957;26;19994;-61
2024/04/21 05:17:54;;;;;;;;;;;8.50;99.90;;;;;;5379941;26;19925;-61
2024/04/21 05:20:22;;;;;;;;;;;8.40;99.90;;;;;;5383279;26;19933;-61
2024/04/21 05:22:48;;;;;;;;;;;8.40;99.90;;;;;;5356582;26;19927;-61
2024/04/21 05:25:15;;;;;;;;;;;8.30;99.90;;;;;;5379985;26;19926;-62
2024/04/21 05:27:42;;;;;;;;;;;8.40;99.90;;;;;;5374611;26;19940;-61
2024/04/21 05:30:09;;;;;;;;;;;8.40;99.90;;;;;;5358275;26;1023948;-61
2024/04/21 05:32:36;;;;;;;;;;;8.50;99.90;;;;;;5386811;26;20002;-61
2024/04/21 05:35:03;;;;;;;;;;;8.60;99.90;;;;;;5384826;26;19933;-61
2024/04/21 05:37:30;;;;;;;;;;;8.60;99.90;;;;;;5371654;26;19932;-62
2024/04/21 05:39:57;;;;;;;;;;;8.60;99.90;;;;;;5365831;26;19925;-62
2024/04/21 05:42:23;;;;;;;;;;;8.60;99.90;;;;;;5381041;26;19933;-61
2024/04/21 05:44:50;;;;;;;;;;;8.60;99.90;;;;;;5379948;26;19995;-62
2024/04/21 05:47:18;;;;;;;;;;;8.60;99.90;;;;;;5383857;26;19933;-61
2024/04/21 05:49:45;;;;;;;;;;;8.50;99.90;;;;;;5392817;26;19940;-61
2024/04/21 05:52:14;;;;;;;;;;;8.50;99.90;;;;;;5379495;26;19933;-62
2024/04/21 05:54:41;;;;;;;;;;;8.60;99.90;;;;;;5385350;26;19932;-62
2024/04/21 05:57:08;;;;;;;;;;;8.60;99.90;;;;;;5384399;26;19936;-62
2024/04/21 05:59:34;;;;;;;;;;;8.70;99.90;;;;;;5378721;26;19924;-61
2024/04/21 06:02:01;;;;;;;;;;;8.70;99.90;;;;;;5380585;26;19926;-61
2024/04/21 06:04:30;;;;;;;;;;;8.70;99.90;;;;;;5384630;26;20016;-61
2024/04/21 06:06:58;;;;;;;;;;;8.70;99.90;;;;;;5376272;26;19925;-62
2024/04/21 06:09:25;;;;;;;;;;;8.70;99.90;;;;;;5398953;26;19931;-62
2024/04/21 06:11:52;;;;;;;;;;;8.70;99.90;;;;;;5377085;26;20320;-62
2024/04/21 06:14:19;;;;;;;;;;;8.80;99.90;;;;;;5380636;26;19937;-61
2024/04/21 06:16:46;;;;;;;;;;;8.70;99.90;;;;;;5350407;26;19925;-62
2024/04/21 06:19:13;;;;;;;;;;;8.70;99.90;;;;;;5374328;26;19971;-62
2024/04/21 06:21:40;;;;;;;;;;;8.60;99.90;;;;;;5385710;26;19932;-62
2024/04/21 06:24:06;;;;;;;;;;;8.70;99.90;;;;;;5383309;26;19925;-61
2024/04/21 06:26:33;;;;;;;;;;;8.70;99.90;;;;;;5380207;26;19932;-61
2024/04/21 06:29:00;;;;;;;;;;;8.70;99.90;;;;;;5379873;26;19944;-61
2024/04/21 06:31:27;;;;;;;;;;;8.70;99.90;;;;;;5392539;21;20351;-61
2024/04/21 06:33:54;;;;;;;;;;;8.70;99.90;;;;;;5386609;26;19930;-61
2024/04/21 06:36:20;;;;;;;;;;;8.70;99.90;;;;;;5370922;26;20282;-60
2024/04/21 06:38:47;;;;;;;;;;;8.60;99.90;;;;;;5386555;26;19945;-61
2024/04/21 06:41:14;;;;;;;;;;;8.50;99.90;;;;;;5390683;26;22055;-60
2024/04/21 06:43:41;;;;;;;;;;;8.30;99.90;;;;;;5385759;26;19925;-61
2024/04/21 06:46:07;;;;;;;;;;;8.40;99.90;;;;;;5385975;26;20372;-60
2024/04/21 06:48:34;;;;;;;;;;;8.50;99.90;;;;;;5377810;26;20321;-59
2024/04/21 06:51:01;;;;;;;;;;;8.50;99.90;;;;;;5387400;26;19954;-60
2024/04/21 06:53:29;;;;;;;;;;;8.60;99.90;;;;;;5377375;26;20317;-61
2024/04/21 06:55:58;;;;;;;;;;;8.70;99.90;;;;;;5390708;26;19932;-60
2024/04/21 06:58:25;;;;;;;;;;;8.70;99.90;;;;;;5373376;26;19925;-60
2024/04/21 07:00:52;;;;;;;;;;;8.70;99.90;;;;;;5380592;26;20436;-61
2024/04/21 07:03:19;;;;;;;;;;;8.70;99.90;;;;;;5385861;26;19925;-60
2024/04/21 07:05:46;;;;;;;;;;;8.50;99.90;;;;;;5385000;26;19925;-61
2024/04/21 07:08:13;;;;;;;;;;;8.60;99.90;;;;;;5382212;26;19926;-62
2024/04/21 07:10:40;;;;;;;;;;;8.50;99.90;;;;;;5383978;26;20237;-62
2024/04/21 07:13:07;;;;;;;;;;;8.30;99.90;;;;;;5384015;26;19961;-61
2024/04/21 07:15:34;;;;;;;;;;;8.20;99.90;;;;;;5388073;26;19931;-60
2024/04/21 07:18:01;;;;;;;;;;;8.20;99.90;;;;;;5383273;26;19925;-62
2024/04/21 07:20:28;;;;;;;;;;;7.70;99.90;;;;;;5393448;26;20001;-61
2024/04/21 07:22:55;;;;;;;;;;;6.40;99.90;;;;;;5393173;26;20429;-59
2024/04/21 07:25:21;;;;;;;;;;;5.60;99.90;;;;;;5388058;26;20363;-60
2024/04/21 07:27:52;;;;;;;;;;;5.30;99.90;;;;;;5387049;26;19925;-59
2024/04/21 07:30:19;;;;;;;;;;;5.10;99.90;;;;;;5382169;26;20766;-60
2024/04/21 07:32:45;;;;;;;;;;;5.20;99.90;;;;;;5380724;26;19933;-60
2024/04/21 07:35:12;;;;;;;;;;;5.20;99.90;;;;;;5389064;26;19925;-55
2024/04/21 07:37:39;;;;;;;;;;;5.10;99.90;;;;;;5375459;26;20243;-54
2024/04/21 07:40:06;;;;;;;;;;;5.00;99.90;;;;;;5377338;26;19936;-57
2024/04/21 07:42:33;;;;;;;;;;;5.00;99.90;;;;;;5386755;26;20399;-57
2024/04/21 07:45:00;;;;;;;;;;;5.10;99.90;;;;;;5383059;26;19936;-56
2024/04/21 07:47:26;;;;;;;;;;;5.10;99.90;;;;;;5388328;26;19932;-56
2024/04/21 07:49:53;;;;;;;;;;;5.40;99.90;;;;;;5378115;26;19925;-57
2024/04/21 07:52:20;;;;;;;;;;;5.60;99.90;;;;;;5374157;26;20017;-58
2024/04/21 07:54:47;;;;;;;;;;;5.60;99.90;;;;;;5371735;26;19925;-59
2024/04/21 07:57:14;;;;;;;;;;;5.60;99.90;;;;;;5379396;26;19941;-58
2024/04/21 07:59:41;;;;;;;;;;;5.70;99.90;;;;;;5367312;26;19933;-54
2024/04/21 08:02:08;;;;;;;;;;;5.80;99.90;;;;;;5363466;26;19933;-59
2024/04/21 08:04:34;;;;;;;;;;;5.80;99.90;;;;;;5378003;26;19949;-59
2024/04/21 08:07:03;;;;;;;;;;;6.00;99.90;;;;;;5365046;26;19925;-56
2024/04/21 08:09:30;;;;;;;;;;;6.00;99.90;;;;;;5372328;26;20673;-59
2024/04/21 08:11:57;;;;;;;;;;;6.10;99.90;;;;;;5380973;26;20609;-58
2024/04/21 08:14:24;;;;;;;;;;;6.10;99.90;;;;;;5367515;26;20386;-58
2024/04/21 08:16:51;;;;;;;;;;;6.10;99.90;;;;;;5380153;26;19926;-60
2024/04/21 08:19:18;;;;;;;;;;;6.00;99.90;;;;;;5382743;26;19937;-58
2024/04/21 08:21:46;;;;;;;;;;;6.10;99.90;;;;;;5369258;26;20382;-58
2024/04/21 08:24:13;;;;;;;;;;;6.20;99.90;;;;;;5382332;26;19933;-58
2024/04/21 08:26:40;;;;;;;;;;;6.20;99.90;;;;;;5366669;26;19926;-58
2024/04/21 08:29:06;;;;;;;;;;;6.30;99.90;;;;;;5362315;26;19933;-59
2024/04/21 08:31:33;;;;;;;;;;;6.40;99.90;;;;;;5375284;26;19932;-61
2024/04/21 08:34:00;;;;;;;;;;;6.40;99.90;;;;;;5374004;26;19975;-61
2024/04/21 08:36:27;;;;;;;;;;;6.40;99.90;;;;;;5380505;26;19926;-61
2024/04/21 08:38:55;;;;;;;;;;;6.50;99.90;;;;;;5385467;26;19926;-61
2024/04/21 08:41:22;;;;;;;;;;;6.50;99.90;;;;;;5370556;26;19941;-60
2024/04/21 08:43:49;;;;;;;;;;;6.70;99.90;;;;;;5375565;26;19925;-61
2024/04/21 08:46:16;;;;;;;;;;;6.90;99.90;;;;;;5380438;26;19933;-61
2024/04/21 08:48:43;;;;;;;;;;;6.90;99.90;;;;;;5373026;26;19992;-62
2024/04/21 08:51:10;;;;;;;;;;;7.10;99.90;;;;;;5383421;26;19933;-61
2024/04/21 08:53:39;;;;;;;;;;;7.10;99.90;;;;;;5386362;26;19990;-62
2024/04/21 08:56:11;;;;;;;;;;;7.50;99.90;;;;;;5370347;26;19925;-60
2024/04/21 08:58:38;;;;;;;;;;;7.50;99.90;;;;;;5373926;26;19932;-60
2024/04/21 09:01:05;;;;;;;;;;;7.50;99.90;;;;;;5383666;26;19926;-62
2024/04/21 09:03:33;;;;;;;;;;;7.70;99.90;;;;;;5380422;26;19925;-62
2024/04/21 09:06:01;;;;;;;;;;;7.60;99.90;;;;;;5380047;26;20019;-62
2024/04/21 09:08:28;;;;;;;;;;;7.60;99.90;;;;;;5374208;26;20373;-61
2024/04/21 09:10:56;;;;;;;;;;;7.40;99.90;;;;;;5384959;26;19932;-61
2024/04/21 09:13:23;;;;;;;;;;;7.70;99.90;;;;;;5381016;26;19955;-62
2024/04/21 09:15:50;;;;;;;;;;;7.50;99.90;;;;;;5387687;26;20376;-61
2024/04/21 09:18:17;;;;;;;;;;;7.40;99.90;;;;;;5372848;26;19944;-61
2024/04/21 09:20:47;;;;;;;;;;;7.40;99.90;;;;;;5382969;26;20759;-62
2024/04/21 09:23:14;;;;;;;;;;;7.60;99.90;;;;;;5383715;26;19995;-61
2024/04/21 09:25:40;;;;;;;;;;;7.60;99.90;;;;;;5381048;26;19932;-62
2024/04/21 09:28:07;;;;;;;;;;;7.60;99.90;;;;;;5370364;26;19937;-61
2024/04/21 09:30:34;;;;;;;;;;;7.50;99.90;;;;;;5391659;26;19924;-61
2024/04/21 09:33:03;;;;;;;;;;;7.80;99.90;;;;;;5394735;26;20393;-59
2024/04/21 09:35:30;;;;;;;;;;;8.10;99.90;;;;;;5384922;26;19969;-59
2024/04/21 09:37:57;;;;;;;;;;;8.10;99.90;;;;;;5386916;26;20354;-57
2024/04/21 09:40:25;;;;;;;;;;;8.50;99.90;;;;;;5384253;26;19933;-61
2024/04/21 09:42:52;;;;;;;;;;;8.20;99.90;;;;;;5383083;26;20423;-59
2024/04/21 09:45:20;;;;;;;;;;;7.70;99.90;;;;;;5366686;26;19996;-60
2024/04/21 09:47:46;;;;;;;;;;;7.50;99.90;;;;;;5368742;26;19925;-60
2024/04/21 09:50:14;;;;;;;;;;;6.90;99.90;;;;;;5370995;26;19925;-59
2024/04/21 09:52:47;;;;;;;;;;;7.10;99.90;;;;;;5387773;26;19935;-60
2024/04/21 09:55:13;;;;;;;;;;;7.10;99.90;;;;;;5375136;26;19956;-58
2024/04/21 09:57:41;;;;;;;;;;;7.40;99.90;;;;;;5380721;26;19929;-59
2024/04/21 10:00:08;;;;;;;;;;;7.80;99.90;;;;;;5376928;26;19982;-60
2024/04/21 10:02:36;;;;;;;;;;;8.00;99.90;;;;;;5386167;26;19925;-58
2024/04/21 10:05:13;;;;;;;;;;;8.50;99.90;;;;;;5375998;26;19926;-60
2024/04/21 10:07:40;;;;;;;;;;;9.10;99.90;;;;;;5346883;26;20357;-56
2024/04/21 10:10:06;;;;;;;;;;;9.40;99.90;;;;;;5390426;26;20366;-57
2024/04/21 10:12:33;;;;;;;;;;;9.30;99.90;;;;;;5382269;26;19933;-57
2024/04/21 10:15:01;;;;;;;;;;;8.60;99.90;;;;;;5398495;26;19924;-57
2024/04/21 10:17:27;;;;;;;;;;;8.70;99.90;;;;;;5370130;26;19926;-57
2024/04/21 10:20:01;;;;;;;;;;;8.80;99.90;;;;;;5390600;26;19932;-58
2024/04/21 10:22:28;;;;;;;;;;;8.50;99.90;;;;;;5376030;26;19933;-58
2024/04/21 10:24:55;;;;;;;;;;;9.20;99.90;;;;;;5384256;26;20664;-59
2024/04/21 10:27:22;;;;;;;;;;;8.60;99.90;;;;;;5372722;26;19933;-58
2024/04/21 10:29:49;;;;;;;;;;;8.60;99.90;;;;;;5376508;26;19932;-58
2024/04/21 10:32:25;;;;;;;;;;;8.30;99.90;;;;;;5376229;26;19926;-58
2024/04/21 10:34:54;;;;;;;;;;;7.80;99.90;;;;;;5382900;26;20026;-58
2024/04/21 10:37:23;;;;;;;;;;;7.10;99.90;;;;;;5374736;26;19940;-57
2024/04/21 10:39:51;;;;;;;;;;;7.20;99.90;;;;;;5378884;26;19937;-57
2024/04/21 10:42:18;;;;;;;;;;;7.10;99.90;;;;;;5378631;26;19924;-56
2024/04/21 10:44:44;;;;;;;;;;;6.40;99.90;;;;;;5386785;26;19928;-58
2024/04/21 10:47:11;;;;;;;;;;;6.10;99.90;;;;;;5386088;26;19925;-57
2024/04/21 10:49:38;;;;;;;;;;;5.40;99.90;;;;;;5368681;26;19972;-57
2024/04/21 10:52:05;;;;;;;;;;;5.10;99.90;;;;;;5379543;26;19925;-58
2024/04/21 10:54:32;;;;;;;;;;;5.30;99.90;;;;;;5350969;26;19937;-56
2024/04/21 10:57:02;;;;;;;;;;;5.40;99.90;;;;;;5382604;26;19925;-58
2024/04/21 10:59:29;;;;;;;;;;;5.50;99.90;;;;;;5387186;26;21858;-58
2024/04/21 11:01:56;;;;;;;;;;;5.70;99.90;;;;;;5381351;26;19926;-57
2024/04/21 11:04:25;;;;;;;;;;;5.90;99.90;;;;;;5378968;26;19933;-58
2024/04/21 11:06:52;;;;;;;;;;;6.40;99.90;;;;;;5370955;26;19999;-58
2024/04/21 11:09:20;;;;;;;;;;;6.50;99.90;;;;;;5383123;26;19926;-59
2024/04/21 11:11:47;;;;;;;;;;;6.40;99.90;;;;;;5377413;26;20322;-57
2024/04/21 11:14:14;;;;;;;;;;;6.40;99.90;;;;;;5382810;26;19925;-58
2024/04/21 11:16:41;;;;;;;;;;;6.80;99.90;;;;;;5387784;26;19925;-56
2024/04/21 11:19:08;;;;;;;;;;;6.70;99.90;;;;;;5389471;26;19933;-57
2024/04/21 11:21:35;;;;;;;;;;;6.60;99.90;;;;;;5387617;26;19943;-57
2024/04/21 11:24:02;;;;;;;;;;;6.50;99.90;;;;;;5390730;26;20634;-57
2024/04/21 11:26:29;;;;;;;;;;;6.50;99.90;;;;;;5390709;26;20587;-58
2024/04/21 11:28:56;;;;;;;;;;;6.60;99.90;;;;;;5389739;26;19925;-58
2024/04/21 11:31:24;;;;;;;;;;;6.60;99.90;;;;;;5356910;26;19924;-56
2024/04/21 11:33:51;;;;;;;;;;;6.30;99.90;;;;;;5395643;26;19939;-57
2024/04/21 11:36:19;;;;;;;;;;;6.50;99.90;;;;;;5398406;26;20328;-56
2024/04/21 11:38:48;;;;;;;;;;;6.50;99.90;;;;;;5373470;26;19926;-56
2024/04/21 11:41:15;;;;;;;;;;;6.80;99.90;;;;;;5378171;26;19926;-55
2024/04/21 11:43:45;;;;;;;;;;;6.80;99.90;;;;;;5387732;26;19925;-55
2024/04/21 11:46:11;;;;;;;;;;;6.80;99.90;;;;;;5389910;26;20491;-56
2024/04/21 11:48:38;;;;;;;;;;;7.20;99.90;;;;;;5387829;26;19932;-55
2024/04/21 11:51:05;;;;;;;;;;;7.30;99.90;;;;;;5393720;26;19926;-53
2024/04/21 11:53:32;;;;;;;;;;;7.30;99.90;;;;;;5370966;26;19933;-57
2024/04/21 11:55:59;;;;;;;;;;;7.70;99.90;;;;;;5375739;26;19925;-55
2024/04/21 11:58:26;;;;;;;;;;;7.40;99.90;;;;;;5387467;26;19973;-57
2024/04/21 12:00:53;;;;;;;;;;;7.30;99.90;;;;;;5370547;26;19947;-56
2024/04/21 12:03:20;;;;;;;;;;;7.30;99.90;;;;;;5365647;26;19933;-58
2024/04/21 12:05:48;;;;;;;;;;;7.10;99.90;;;;;;5336607;26;19944;-58
2024/04/21 12:08:16;;;;;;;;;;;7.30;99.90;;;;;;5377539;26;19924;-59
2024/04/21 12:10:42;;;;;;;;;;;7.40;99.90;;;;;;5381576;26;19926;-56
2024/04/21 12:13:09;;;;;;;;;;;7.40;99.90;;;;;;5399158;26;19925;-57
2024/04/21 12:15:36;;;;;;;;;;;7.50;99.90;;;;;;5386998;26;20443;-58
2024/04/21 12:18:07;;;;;;;;;;;7.20;99.90;;;;;;5390197;26;19925;-57
2024/04/21 12:20:36;;;;;;;;;;;7.20;99.90;;;;;;5386144;26;19924;-58
2024/04/21 12:23:03;;;;;;;;;;;7.30;99.90;;;;;;5388086;26;19932;-58
2024/04/21 12:25:30;;;;;;;;;;;7.20;99.90;;;;;;5372741;26;20003;-57
2024/04/21 12:27:57;;;;;;;;;;;7.00;99.90;;;;;;5364147;26;19936;-58
2024/04/21 12:30:24;;;;;;;;;;;7.30;99.90;;;;;;5368829;26;20388;-61
2024/04/21 12:32:50;;;;;;;;;;;7.20;99.90;;;;;;5366630;26;20574;-59
2024/04/21 12:35:18;;;;;;;;;;;7.40;99.90;;;;;;5366503;26;19925;-61
2024/04/21 12:37:44;;;;;;;;;;;7.60;99.90;;;;;;5368400;26;19948;-59
2024/04/21 12:40:12;;;;;;;;;;;7.70;99.90;;;;;;5365260;26;19992;-60
2024/04/21 12:42:38;;;;;;;;;;;8.20;99.90;;;;;;5364943;26;19925;-61
2024/04/21 12:45:06;;;;;;;;;;;8.10;99.90;;;;;;5365122;26;20417;-61
2024/04/21 12:47:35;;;;;;;;;;;8.30;99.90;;;;;;5367906;26;19940;-59
2024/04/21 12:50:02;;;;;;;;;;;8.00;99.90;;;;;;5367021;26;19994;-59
2024/04/21 12:52:29;;;;;;;;;;;7.60;99.90;;;;;;5343850;26;19935;-61
2024/04/21 12:54:55;;;;;;;;;;;7.30;99.90;;;;;;5377516;26;19940;-59
2024/04/21 12:57:22;;;;;;;;;;;7.10;99.90;;;;;;5376919;26;19940;-60
2024/04/21 12:59:49;;;;;;;;;;;6.00;99.90;;;;;;5378861;26;19926;-59
2024/04/21 13:02:17;;;;;;;;;;;5.30;99.90;;;;;;5378671;26;20290;-61
2024/04/21 13:04:44;;;;;;;;;;;5.20;99.90;;;;;;5379162;26;19930;-60
2024/04/21 13:07:11;;;;;;;;;;;5.20;99.90;;;;;;5342539;26;19929;-60
2024/04/21 13:09:38;;;;;;;;;;;5.30;99.90;;;;;;5388286;26;19932;-60
2024/04/21 13:12:05;;;;;;;;;;;5.20;99.90;;;;;;5392069;26;19994;-60
2024/04/21 13:14:33;;;;;;;;;;;5.50;99.90;;;;;;5387140;26;20366;-61
2024/04/21 13:16:59;;;;;;;;;;;5.70;99.90;;;;;;5382808;26;19925;-60
2024/04/21 13:19:27;;;;;;;;;;;5.90;99.90;;;;;;5375762;26;20393;-61
2024/04/21 13:21:54;;;;;;;;;;;5.80;99.90;;;;;;5382010;26;19926;-60
2024/04/21 13:24:21;;;;;;;;;;;6.20;99.90;;;;;;5385062;26;19925;-60
2024/04/21 13:26:48;;;;;;;;;;;6.20;99.90;;;;;;5359475;26;19994;-60
2024/04/21 13:29:15;;;;;;;;;;;6.20;99.90;;;;;;5347145;26;19932;-60
2024/04/21 13:31:41;;;;;;;;;;;6.50;99.90;;;;;;5376573;26;19926;-60
2024/04/21 13:34:08;;;;;;;;;;;6.50;99.90;;;;;;5373778;26;19932;-59
2024/04/21 13:36:37;;;;;;;;;;;6.60;99.90;;;;;;5377160;26;20361;-59
2024/04/21 13:39:06;;;;;;;;;;;6.80;99.90;;;;;;5372675;26;19932;-58
2024/04/21 13:41:33;;;;;;;;;;;6.60;99.90;;;;;;5382670;26;20371;-60
2024/04/21 13:44:02;;;;;;;;;;;6.50;99.90;;;;;;5374278;26;19926;-57
2024/04/21 13:46:29;;;;;;;;;;;6.60;99.90;;;;;;5368601;26;19926;-60
2024/04/21 13:48:56;;;;;;;;;;;6.40;99.90;;;;;;5371909;26;19926;-59
2024/04/21 13:51:23;;;;;;;;;;;6.50;99.90;;;;;;5383211;26;19930;-59
2024/04/21 13:53:58;;;;;;;;;;;6.60;99.90;;;;;;5378019;26;19994;-59
2024/04/21 13:56:25;;;;;;;;;;;6.40;99.90;;;;;;5376022;26;19935;-61
2024/04/21 13:58:52;;;;;;;;;;;6.40;99.90;;;;;;5375652;26;19934;-60
2024/04/21 14:01:19;;;;;;;;;;;6.40;99.90;;;;;;5372413;26;19933;-60
2024/04/21 14:03:46;;;;;;;;;;;6.20;99.90;;;;;;5381700;26;19932;-61
2024/04/21 14:06:14;;;;;;;;;;;6.00;99.90;;;;;;5372507;26;19932;-59
2024/04/21 14:08:44;;;;;;;;;;;6.00;99.90;;;;;;5350971;26;20559;-58
2024/04/21 14:11:10;;;;;;;;;;;6.20;99.90;;;;;;5370948;26;20332;-61
2024/04/21 14:13:37;;;;;;;;;;;6.10;99.90;;;;;;5368029;26;19933;-60
2024/04/21 14:16:04;;;;;;;;;;;6.20;99.90;;;;;;5366521;26;19933;-60
2024/04/21 14:18:31;;;;;;;;;;;6.20;99.90;;;;;;5368456;26;19949;-60
2024/04/21 14:20:58;;;;;;;;;;;6.40;99.90;;;;;;5368301;26;19926;-60
2024/04/21 14:23:24;;;;;;;;;;;6.50;99.90;;;;;;5363907;26;19933;-60
2024/04/21 14:25:53;;;;;;;;;;;6.60;99.90;;;;;;5374545;26;19946;-60
2024/04/21 14:28:20;;;;;;;;;;;6.60;99.90;;;;;;5367617;26;19941;-61